地図

経路データ

SID SEASON NUMBER BASIN SUBBASIN NAME ISO_TIME NATURE LAT LON WMO_WIND WMO_PRES WMO_AGENCY TRACK_TYPE DIST2LAND LANDFALL IFLAG USA_AGENCY USA_ATCF_ID USA_LAT USA_LON USA_RECORD USA_STATUS USA_WIND USA_PRES USA_SSHS USA_R34_NE USA_R34_SE USA_R34_SW USA_R34_NW USA_R50_NE USA_R50_SE USA_R50_SW USA_R50_NW USA_R64_NE USA_R64_SE USA_R64_SW USA_R64_NW USA_POCI USA_ROCI USA_RMW USA_EYE TOKYO_LAT TOKYO_LON TOKYO_GRADE TOKYO_WIND TOKYO_PRES TOKYO_R50_DIR TOKYO_R50_LONG TOKYO_R50_SHORT TOKYO_R30_DIR TOKYO_R30_LONG TOKYO_R30_SHORT TOKYO_LAND CMA_LAT CMA_LON CMA_CAT CMA_WIND CMA_PRES HKO_LAT HKO_LON HKO_CAT HKO_WIND HKO_PRES NEWDELHI_LAT NEWDELHI_LON NEWDELHI_GRADE NEWDELHI_WIND NEWDELHI_PRES NEWDELHI_CI NEWDELHI_DP NEWDELHI_POCI REUNION_LAT REUNION_LON REUNION_TYPE REUNION_WIND REUNION_PRES REUNION_TNUM REUNION_CI REUNION_RMW REUNION_R34_NE REUNION_R34_SE REUNION_R34_SW REUNION_R34_NW REUNION_R50_NE REUNION_R50_SE REUNION_R50_SW REUNION_R50_NW REUNION_R64_NE REUNION_R64_SE REUNION_R64_SW REUNION_R64_NW BOM_LAT BOM_LON BOM_TYPE BOM_WIND BOM_PRES BOM_TNUM BOM_CI BOM_RMW BOM_R34_NE BOM_R34_SE BOM_R34_SW BOM_R34_NW BOM_R50_NE BOM_R50_SE BOM_R50_SW BOM_R50_NW BOM_R64_NE BOM_R64_SE BOM_R64_SW BOM_R64_NW BOM_ROCI BOM_POCI BOM_EYE BOM_POS_METHOD BOM_PRES_METHOD NADI_LAT NADI_LON NADI_CAT NADI_WIND NADI_PRES WELLINGTON_LAT WELLINGTON_LON WELLINGTON_WIND WELLINGTON_PRES DS824_LAT DS824_LON DS824_STAGE DS824_WIND DS824_PRES TD9636_LAT TD9636_LON TD9636_STAGE TD9636_WIND TD9636_PRES TD9635_LAT TD9635_LON TD9635_WIND TD9635_PRES TD9635_ROCI NEUMANN_LAT NEUMANN_LON NEUMANN_CLASS NEUMANN_WIND NEUMANN_PRES MLC_LAT MLC_LON MLC_CLASS MLC_WIND MLC_PRES USA_GUST BOM_GUST BOM_GUST_PER REUNION_GUST REUNION_GUST_PER USA_SEAHGT USA_SEARAD_NE USA_SEARAD_SE USA_SEARAD_SW USA_SEARAD_NW STORM_SPEED STORM_DIR
1943046S19045 1943 18 SI MM NOT_NAMED 1943-02-15 03:00:00 NR -18.7499 45.0690 spur-other 0 0 ______________ -1 4 103
1943046S19045 1943 18 SI MM NOT_NAMED 1943-02-15 06:00:00 NR -18.8000 45.3000 reunion spur-other 0 0 _____O________ -1 -18.8000 45.3000 99 9.90000 5 104
1943046S19045 1943 18 SI MM NOT_NAMED 1943-02-15 09:00:00 NR -18.8612 45.5422 spur-other 0 0 _____P________ -1 -18.9023 45.6484 99 5 105
1943046S19045 1943 18 SI MM NOT_NAMED 1943-02-15 12:00:00 NR -18.9310 45.8194 spur-other 0 0 _____P________ -1 -19.0039 45.9974 99 6 105
1943046S19045 1943 18 SI MM NOT_NAMED 1943-02-15 15:00:00 NR -19.0106 46.1295 spur-other 0 0 _____P________ -1 -19.1050 46.3468 99 6 105
1943046S19045 1943 18 SI MM NOT_NAMED 1943-02-15 18:00:00 NR -19.1013 46.4703 spur-other 0 0 _____P________ -1 -19.2053 46.6966 99 7 106
1943046S19045 1943 18 SI MM NOT_NAMED 1943-02-15 21:00:00 NR -19.2043 46.8398 spur-other 0 0 _____P________ -1 -19.3050 47.0469 99 8 107
1943046S19045 1943 18 SI MM NOT_NAMED 1943-02-16 00:00:00 NR -19.3209 47.2359 spur-other 0 0 _____P________ -1 -19.4040 47.3976 99 8 108
1943046S19045 1943 18 SI MM NOT_NAMED 1943-02-16 03:00:00 NR -19.4524 47.6566 spur-other 0 0 _____P________ -1 -19.5024 47.7486 99 9 109
1943046S19045 1943 18 SI MM NOT_NAMED 1943-02-16 06:00:00 NR -19.6000 48.1000 reunion spur-other 0 0 _____O________ -1 -19.6000 48.1000 99 9.90000 9 108
1943046S19045 1943 18 SI MM NOT_NAMED 1943-02-16 09:00:00 NR -19.7123 48.5273 spur-other 0 0 _____P________ -1 -19.8051 48.6076 99 9 106
1943046S19045 1943 18 SI MM NOT_NAMED 1943-02-16 12:00:00 NR -19.8353 48.9787 spur-other 20 20 _____P________ -1 -20.0088 49.1168 99 9 107
1943046S19045 1943 18 SI MM NOT_NAMED 1943-02-16 15:00:00 NR -19.9761 49.4542 spur-other 73 73 _____P________ -1 -20.2111 49.6274 99 10 109
1943046S19045 1943 18 SI MM NOT_NAMED 1943-02-16 18:00:00 NR -20.1420 49.9537 spur-other 125 125 _____P________ -1 -20.4120 50.1394 99 10 111
1943046S19045 1943 18 SI MM NOT_NAMED 1943-02-16 21:00:00 NR -20.3402 50.4775 spur-other 180 180 _____P________ -1 -20.6114 50.6528 99 11 113
1943046S19045 1943 18 SI MM NOT_NAMED 1943-02-17 00:00:00 NR -20.5778 51.0261 spur-other 239 239 _____P________ -1 -20.8092 51.1674 99 12 116
1943046S19045 1943 18 SI MM NOT_NAMED 1943-02-17 03:00:00 NR -20.8620 51.5999 spur-other 308 308 _____P________ -1 -21.0054 51.6831 99 13 120
1943046S19045 1943 18 SI MM NOT_NAMED 1943-02-17 06:00:00 NR -21.2000 52.2000 reunion spur-other 311 244 _____O________ -1 -21.2000 52.2000 99 9.90000 14 123
1943046S19045 1943 18 SI MM NOT_NAMED 1943-02-17 09:00:00 NR -21.6465 52.9005 spur-other 244 197 ______________ -1 99 16 125
1943046S19045 1943 18 SI MM NOT_NAMED 1943-02-17 12:00:00 NR -22.1526 53.6436 spur-other 202 175 ______________ -1 99 18 127
1943046S19045 1943 18 SI MM NOT_NAMED 1943-02-17 15:00:00 NR -22.6993 54.4090 spur-other 181 176 ______________ -1 99 18 128
1943046S19045 1943 18 SI MM NOT_NAMED 1943-02-17 18:00:00 NR -23.2680 55.1753 spur-other 216 ______________ -1 99 18 129

IBTrACS Databaseについて

本データベースは、米国NOAAが公開する1842年以降の世界の熱帯低気圧のベストトラックデータアーカイブInternational Best Track Archive for Climate Stewardship (IBTrACS)を、ウェブで閲覧しやすい形式に変換したものです。

最終更新日:2021-12-03